createdAt,value
2023-01-26T00:01:44.297Z,89.00
2023-01-26T00:04:15.254Z,89.20
2023-01-26T00:06:46.066Z,89.40
2023-01-26T00:09:20.085Z,89.20
2023-01-26T00:11:51.952Z,89.20
2023-01-26T00:14:22.788Z,89.20
2023-01-26T00:16:54.876Z,89.50
2023-01-26T00:19:25.577Z,89.60
2023-01-26T00:21:56.227Z,89.50
2023-01-26T00:24:27.044Z,89.50
2023-01-26T00:26:57.828Z,89.40
2023-01-26T00:29:28.758Z,89.30
2023-01-26T00:31:59.444Z,88.80
2023-01-26T00:34:36.207Z,88.60
2023-01-26T00:37:08.800Z,88.50
2023-01-26T00:39:41.279Z,88.10
2023-01-26T00:42:12.866Z,88.70
2023-01-26T00:44:45.204Z,87.90
2023-01-26T00:47:16.804Z,87.90
2023-01-26T00:49:48.000Z,87.60
2023-01-26T00:52:19.754Z,87.40
2023-01-26T00:54:51.814Z,87.40
2023-01-26T00:57:23.795Z,87.30
2023-01-26T00:59:56.668Z,87.20
2023-01-26T01:02:26.540Z,87.30
2023-01-26T01:04:57.420Z,87.40
2023-01-26T01:07:28.240Z,86.90
2023-01-26T01:09:59.001Z,86.50
2023-01-26T01:12:30.862Z,86.10
2023-01-26T01:15:01.807Z,86.30
2023-01-26T01:17:32.734Z,86.40
2023-01-26T01:20:03.580Z,85.90
2023-01-26T01:22:37.720Z,85.70
2023-01-26T01:25:09.142Z,85.80
2023-01-26T01:27:40.406Z,85.50
2023-01-26T01:30:13.039Z,85.20
2023-01-26T01:32:46.039Z,85.00
2023-01-26T01:35:18.105Z,84.50
2023-01-26T01:37:48.898Z,84.30
2023-01-26T01:40:22.106Z,82.50
2023-01-26T01:42:52.914Z,82.70
2023-01-26T01:45:38.941Z,82.10
2023-01-26T01:48:11.711Z,81.30
2023-01-26T01:51:02.359Z,81.40
2023-01-26T01:53:43.340Z,81.30
2023-01-26T01:56:16.916Z,81.10
2023-01-26T01:58:49.467Z,80.70
2023-01-26T02:01:20.346Z,79.80
2023-01-26T02:03:53.595Z,79.20
2023-01-26T02:06:29.638Z,79.60
2023-01-26T02:09:01.269Z,79.30
2023-01-26T02:11:37.469Z,79.30
2023-01-26T02:14:13.941Z,79.20
2023-01-26T02:16:44.946Z,78.80
2023-01-26T02:19:23.873Z,78.50
2023-01-26T02:21:56.775Z,78.30
2023-01-26T02:24:32.119Z,77.60
2023-01-26T02:27:03.555Z,76.10
2023-01-26T02:29:34.827Z,75.30
2023-01-26T02:32:05.989Z,75.30
2023-01-26T02:34:39.043Z,75.10
2023-01-26T02:37:12.848Z,75.20
2023-01-26T02:39:50.371Z,74.50
2023-01-26T02:42:39.168Z,74.70
2023-01-26T02:45:12.179Z,75.20
2023-01-26T02:47:45.577Z,75.00
2023-01-26T02:50:17.305Z,74.90
2023-01-26T02:52:48.083Z,74.80
2023-01-26T02:55:26.417Z,74.70
2023-01-26T02:58:05.428Z,74.30
2023-01-26T03:00:39.949Z,74.10
2023-01-26T03:03:13.340Z,73.70
2023-01-26T03:05:47.879Z,73.90
2023-01-26T03:08:19.979Z,73.70
2023-01-26T03:10:50.750Z,73.90
2023-01-26T03:13:21.405Z,74.00
2023-01-26T03:15:56.127Z,73.90
2023-01-26T03:19:07.120Z,73.60
2023-01-26T03:21:55.683Z,73.50
2023-01-26T03:24:44.128Z,73.50
2023-01-26T03:27:30.383Z,72.80
2023-01-26T03:30:01.417Z,72.80
2023-01-26T03:32:32.231Z,72.60
2023-01-26T03:35:04.279Z,71.70
2023-01-26T03:37:36.664Z,70.90
2023-01-26T03:40:26.751Z,70.20
2023-01-26T03:43:15.615Z,70.00
2023-01-26T03:46:04.160Z,69.30
2023-01-26T03:48:52.733Z,67.80
2023-01-26T03:51:42.289Z,67.60
2023-01-26T03:54:31.318Z,67.80
2023-01-26T03:57:02.355Z,67.90
2023-01-26T03:59:52.967Z,67.60
2023-01-26T04:02:41.854Z,66.70
2023-01-26T04:05:30.921Z,66.20
2023-01-26T04:08:27.257Z,65.50
2023-01-26T04:10:58.711Z,65.40
2023-01-26T04:13:47.580Z,64.40
2023-01-26T04:16:35.924Z,62.60
2023-01-26T04:19:24.767Z,62.20
2023-01-26T04:21:56.320Z,61.50
2023-01-26T04:24:27.565Z,60.80
2023-01-26T04:27:02.810Z,60.50
2023-01-26T04:32:11.219Z,60.50
2023-01-26T04:34:42.510Z,60.40
2023-01-26T04:37:14.201Z,60.20
2023-01-26T04:39:45.340Z,60.80
2023-01-26T04:42:16.091Z,59.30
2023-01-26T04:44:47.371Z,58.30
2023-01-26T04:47:18.619Z,58.50
2023-01-26T04:49:49.681Z,58.00
2023-01-26T04:52:20.689Z,57.60
2023-01-26T04:54:51.639Z,57.50
2023-01-26T04:57:24.319Z,56.70
2023-01-26T04:59:55.436Z,57.10
2023-01-26T05:02:27.126Z,55.50
2023-01-26T05:04:57.785Z,55.40
2023-01-26T05:07:29.112Z,55.70
2023-01-26T05:10:00.308Z,55.90
2023-01-26T05:12:37.383Z,55.60
2023-01-26T05:15:08.689Z,55.60
2023-01-26T05:17:40.019Z,55.40
2023-01-26T05:20:12.398Z,55.90
2023-01-26T05:22:46.284Z,54.90
2023-01-26T05:25:17.945Z,55.40
2023-01-26T05:30:20.144Z,53.40
2023-01-26T05:32:51.550Z,53.80
2023-01-26T05:35:23.036Z,55.10
2023-01-26T05:37:54.288Z,54.80
2023-01-26T05:40:26.056Z,55.00
2023-01-26T05:42:57.506Z,55.30
2023-01-26T05:45:28.671Z,54.70
2023-01-26T05:47:59.679Z,55.30
2023-01-26T05:50:30.826Z,54.60
2023-01-26T05:53:03.218Z,54.30
2023-01-26T05:55:34.631Z,54.20
2023-01-26T05:58:05.392Z,54.30
2023-01-26T06:00:36.368Z,54.40
2023-01-26T06:03:07.680Z,53.90
2023-01-26T06:05:39.933Z,54.10
2023-01-26T06:08:11.127Z,55.10
2023-01-26T06:10:42.373Z,55.10
2023-01-26T06:13:13.808Z,55.00
2023-01-26T06:15:48.256Z,54.60
2023-01-26T06:18:19.399Z,54.40
2023-01-26T06:21:11.079Z,53.80
2023-01-26T06:23:42.287Z,53.50
2023-01-26T06:26:13.206Z,54.10
2023-01-26T06:28:44.064Z,54.40
2023-01-26T06:31:15.922Z,54.80
2023-01-26T06:33:47.116Z,54.60
2023-01-26T06:36:18.751Z,54.40
2023-01-26T06:38:56.676Z,53.70
2023-01-26T06:41:27.125Z,54.10
2023-01-26T06:43:58.216Z,53.90
2023-01-26T06:46:29.792Z,53.90
2023-01-26T06:49:01.021Z,54.20
2023-01-26T06:51:49.330Z,54.20
2023-01-26T06:54:20.001Z,53.60
2023-01-26T06:56:51.231Z,53.20
2023-01-26T06:59:22.703Z,53.40
2023-01-26T07:01:53.959Z,52.60
2023-01-26T07:04:27.357Z,53.40
2023-01-26T07:06:58.186Z,52.40
2023-01-26T07:09:29.140Z,52.00
2023-01-26T07:11:59.907Z,52.60
2023-01-26T07:14:30.754Z,52.70
2023-01-26T07:17:01.836Z,53.40
2023-01-26T07:19:34.015Z,53.10
2023-01-26T07:22:06.682Z,53.10
2023-01-26T07:24:37.808Z,52.80
2023-01-26T07:27:08.665Z,52.60
2023-01-26T07:29:40.094Z,52.40
2023-01-26T07:32:10.873Z,52.50
2023-01-26T07:34:41.809Z,52.00
2023-01-26T07:37:12.776Z,52.40
2023-01-26T07:39:43.656Z,52.60
2023-01-26T07:42:14.898Z,52.90
2023-01-26T07:44:45.631Z,52.70
2023-01-26T07:47:20.674Z,52.10
2023-01-26T07:49:51.592Z,52.00
2023-01-26T07:52:22.294Z,52.50
2023-01-26T07:54:53.198Z,52.70
2023-01-26T07:57:24.056Z,52.50
2023-01-26T07:59:54.847Z,52.70
2023-01-26T08:02:28.562Z,52.30
2023-01-26T08:05:01.503Z,52.00
2023-01-26T08:07:32.368Z,52.10
2023-01-26T08:10:03.620Z,52.00
2023-01-26T08:12:39.480Z,53.00
2023-01-26T08:15:08.977Z,52.50
2023-01-26T08:17:39.940Z,52.30
2023-01-26T08:20:14.971Z,52.50
2023-01-26T08:22:46.197Z,52.40
2023-01-26T08:25:17.873Z,52.40
2023-01-26T08:27:49.201Z,52.50
2023-01-26T08:30:20.447Z,52.20
2023-01-26T08:32:51.127Z,52.00
2023-01-26T08:35:22.038Z,52.00
2023-01-26T08:37:52.766Z,52.40
2023-01-26T08:40:23.709Z,52.10
2023-01-26T08:42:55.882Z,52.50
2023-01-26T08:45:27.870Z,52.50
2023-01-26T08:47:59.038Z,52.50
2023-01-26T08:50:30.353Z,52.50
2023-01-26T08:53:01.846Z,52.20
2023-01-26T08:55:34.731Z,51.90
2023-01-26T08:58:06.122Z,51.80
2023-01-26T09:00:36.954Z,51.90
2023-01-26T09:03:09.246Z,52.00
2023-01-26T09:05:41.887Z,52.70
2023-01-26T09:08:13.434Z,52.10
2023-01-26T09:10:49.445Z,51.60
2023-01-26T09:13:20.132Z,50.90
2023-01-26T09:15:50.927Z,51.20
2023-01-26T09:18:21.804Z,50.80
2023-01-26T09:20:52.945Z,50.70
2023-01-26T09:23:24.827Z,51.10
2023-01-26T09:25:58.638Z,51.40
2023-01-26T09:28:30.501Z,51.60
2023-01-26T09:31:11.167Z,51.40
2023-01-26T09:33:44.842Z,52.10
2023-01-26T09:36:15.067Z,51.40
2023-01-26T09:38:46.431Z,51.20
2023-01-26T09:41:23.163Z,51.70
2023-01-26T09:44:08.638Z,51.50
2023-01-26T09:46:53.911Z,51.80
2023-01-26T09:49:35.836Z,51.80
2023-01-26T09:52:09.239Z,52.20
2023-01-26T09:54:42.443Z,52.10
2023-01-26T09:57:15.768Z,51.90
2023-01-26T09:59:55.497Z,52.30
2023-01-26T10:02:53.593Z,52.00
2023-01-26T10:05:48.457Z,52.60
2023-01-26T10:08:21.659Z,52.80
2023-01-26T10:11:03.879Z,52.50
2023-01-26T10:13:35.368Z,52.50
2023-01-26T10:16:14.244Z,52.40
2023-01-26T10:18:47.493Z,52.70
2023-01-26T10:21:20.463Z,53.10
2023-01-26T10:23:52.811Z,53.00
2023-01-26T10:26:26.611Z,52.80
2023-01-26T10:28:58.392Z,52.50
2023-01-26T10:31:31.781Z,53.20
2023-01-26T10:34:13.958Z,53.20
2023-01-26T10:36:51.647Z,53.30
2023-01-26T10:39:22.958Z,53.50
2023-01-26T10:42:07.158Z,53.40
2023-01-26T10:44:40.002Z,53.60
2023-01-26T10:47:19.525Z,53.70
2023-01-26T10:49:50.673Z,54.00
2023-01-26T10:52:27.959Z,54.20
2023-01-26T10:55:16.605Z,54.40
2023-01-26T10:57:47.815Z,54.30
2023-01-26T11:00:33.906Z,54.40
2023-01-26T11:03:10.345Z,54.60
2023-01-26T11:05:41.461Z,54.80
2023-01-26T11:08:31.235Z,55.00
2023-01-26T11:11:02.654Z,54.90
2023-01-26T11:13:33.518Z,55.30
2023-01-26T11:16:19.859Z,55.70
2023-01-26T11:19:01.838Z,55.90
2023-01-26T11:21:41.506Z,56.00
2023-01-26T11:24:33.495Z,56.10
2023-01-26T11:27:26.805Z,56.30
2023-01-26T11:30:05.804Z,56.40
2023-01-26T11:33:14.135Z,57.00
2023-01-26T11:36:02.175Z,56.70
2023-01-26T11:38:47.777Z,56.90
2023-01-26T11:41:21.022Z,57.20
2023-01-26T11:44:00.706Z,57.20
2023-01-26T11:46:47.955Z,57.50
2023-01-26T11:49:49.129Z,57.40
2023-01-26T11:52:38.733Z,57.60
2023-01-26T11:55:22.506Z,57.60
2023-01-26T11:57:57.913Z,57.70
2023-01-26T12:00:55.914Z,58.60
2023-01-26T12:03:29.182Z,58.10
2023-01-26T12:06:08.536Z,58.30
2023-01-26T12:08:47.937Z,58.60
2023-01-26T12:11:27.413Z,58.80
2023-01-26T12:14:28.012Z,58.80
2023-01-26T12:17:18.688Z,58.80
2023-01-26T12:20:07.040Z,58.90
2023-01-26T12:22:43.600Z,59.10
2023-01-26T12:25:38.060Z,59.90
2023-01-26T12:28:20.760Z,59.10
2023-01-26T12:30:54.453Z,59.20
2023-01-26T12:33:47.226Z,59.30
2023-01-26T12:36:28.997Z,59.50
2023-01-26T12:39:26.970Z,59.60
2023-01-26T12:42:30.307Z,59.70
2023-01-26T12:45:11.549Z,59.60
2023-01-26T12:51:20.740Z,60.20
2023-01-26T12:54:00.548Z,60.60
2023-01-26T12:56:49.002Z,61.30
2023-01-26T12:59:38.888Z,62.20
2023-01-26T13:01:57.766Z,62.90
2023-01-26T13:04:29.037Z,63.40
2023-01-26T13:07:08.360Z,63.70
2023-01-26T13:09:43.926Z,63.70
2023-01-26T13:12:17.230Z,63.90
2023-01-26T13:14:56.827Z,63.60
2023-01-26T13:17:30.501Z,63.90
2023-01-26T13:20:01.713Z,63.60
2023-01-26T13:22:43.674Z,63.60
2023-01-26T13:25:31.023Z,64.20
2023-01-26T13:28:11.058Z,64.40
2023-01-26T13:30:50.311Z,64.70
2023-01-26T13:33:29.750Z,64.50
2023-01-26T13:36:04.133Z,64.80
2023-01-26T13:38:43.810Z,65.00
2023-01-26T13:41:22.603Z,65.20
2023-01-26T13:44:02.891Z,65.20
2023-01-26T13:46:41.816Z,65.20
2023-01-26T13:49:43.665Z,65.30
2023-01-26T13:52:28.479Z,65.30
2023-01-26T13:54:59.935Z,66.30
2023-01-26T13:57:36.825Z,66.40
2023-01-26T14:00:07.395Z,66.30
2023-01-26T14:02:41.209Z,65.80
2023-01-26T14:05:16.396Z,66.70
2023-01-26T14:07:50.390Z,67.60
2023-01-26T14:10:25.072Z,67.60
2023-01-26T14:12:59.240Z,67.00
2023-01-26T14:15:36.898Z,67.40
2023-01-26T14:18:09.532Z,67.90
2023-01-26T14:20:42.035Z,68.10
2023-01-26T14:23:19.457Z,68.80
2023-01-26T14:26:06.424Z,69.10
2023-01-26T14:28:41.752Z,69.40
2023-01-26T14:31:26.858Z,69.60
2023-01-26T14:34:06.209Z,69.80
2023-01-26T14:36:41.436Z,69.70
2023-01-26T14:39:23.170Z,70.20
2023-01-26T14:41:54.482Z,70.70
2023-01-26T14:44:25.330Z,70.70
2023-01-26T14:47:01.160Z,70.70
2023-01-26T14:49:44.431Z,71.20
2023-01-26T14:52:26.599Z,70.90
2023-01-26T14:55:01.841Z,70.70
2023-01-26T14:57:36.199Z,70.50
2023-01-26T15:00:09.869Z,70.80
2023-01-26T15:02:43.861Z,71.30
2023-01-26T15:05:26.390Z,71.90
2023-01-26T15:08:04.456Z,71.40
2023-01-26T15:10:46.796Z,71.50
2023-01-26T15:13:29.307Z,71.80
2023-01-26T15:18:43.729Z,71.40
2023-01-26T15:21:17.399Z,72.30
2023-01-26T15:23:53.897Z,72.40
2023-01-26T15:26:36.058Z,72.20
2023-01-26T15:29:08.727Z,71.90
2023-01-26T15:31:42.889Z,72.90
2023-01-26T15:34:38.164Z,73.10
2023-01-26T15:37:34.993Z,72.80
2023-01-26T15:40:06.282Z,73.20
2023-01-26T15:42:37.068Z,73.00
2023-01-26T15:45:12.127Z,73.10
2023-01-26T15:47:43.093Z,73.20
2023-01-26T15:50:27.321Z,73.30
2023-01-26T15:52:48.661Z,73.40
2023-01-26T15:55:25.713Z,73.60
2023-01-26T15:57:57.712Z,73.80
2023-01-26T16:00:29.019Z,73.90
2023-01-26T16:03:00.005Z,73.90
2023-01-26T16:05:32.122Z,73.90
2023-01-26T16:08:02.882Z,73.80
2023-01-26T16:10:34.355Z,74.30
2023-01-26T16:13:09.193Z,74.40
2023-01-26T16:15:51.532Z,74.30
2023-01-26T16:18:23.659Z,74.50
2023-01-26T16:20:54.659Z,74.50
2023-01-26T16:23:29.475Z,74.60
2023-01-26T16:26:00.444Z,74.50
2023-01-26T16:28:31.394Z,74.90
2023-01-26T16:31:03.643Z,76.30
2023-01-26T16:33:34.451Z,76.90
2023-01-26T16:36:05.246Z,77.40
2023-01-26T16:38:36.032Z,77.70
2023-01-26T16:41:07.234Z,77.80
2023-01-26T16:43:39.193Z,77.80
2023-01-26T16:46:10.209Z,77.60
2023-01-26T16:48:42.668Z,77.50
2023-01-26T16:51:21.753Z,77.30
2023-01-26T16:53:53.038Z,77.60
2023-01-26T16:56:24.239Z,77.00
2023-01-26T16:58:55.045Z,76.80
2023-01-26T17:01:30.044Z,76.30
2023-01-26T17:04:00.988Z,76.20
2023-01-26T17:06:32.450Z,76.40
2023-01-26T17:09:03.107Z,76.70
2023-01-26T17:11:34.520Z,76.70
2023-01-26T17:14:05.515Z,76.50
2023-01-26T17:16:37.250Z,76.70
2023-01-26T17:19:09.271Z,76.60
2023-01-26T17:21:40.464Z,76.20
2023-01-26T17:24:11.896Z,75.90
2023-01-26T17:26:42.653Z,75.80
2023-01-26T17:29:14.572Z,75.50
2023-01-26T17:31:45.406Z,75.50
2023-01-26T17:34:16.312Z,75.70
2023-01-26T17:36:47.093Z,75.80
2023-01-26T17:39:19.326Z,75.90
2023-01-26T17:41:49.983Z,76.10
2023-01-26T17:44:20.692Z,76.20
2023-01-26T17:46:51.553Z,76.30
2023-01-26T17:49:22.699Z,76.20
2023-01-26T17:51:53.572Z,76.30
2023-01-26T17:54:24.391Z,76.40
2023-01-26T17:56:56.510Z,76.20
2023-01-26T17:59:29.033Z,76.40
2023-01-26T18:01:59.803Z,76.60
2023-01-26T18:04:34.295Z,76.60
2023-01-26T18:07:04.967Z,76.90
2023-01-26T18:09:35.635Z,76.70
2023-01-26T18:12:06.988Z,76.70
2023-01-26T18:14:37.815Z,77.50
2023-01-26T18:17:11.171Z,77.60
2023-01-26T18:19:41.960Z,76.40
2023-01-26T18:22:12.748Z,76.40
2023-01-26T18:24:43.605Z,76.70
2023-01-26T18:27:14.269Z,76.90
2023-01-26T18:29:45.057Z,76.90
2023-01-26T18:32:15.839Z,77.10
2023-01-26T18:34:46.601Z,77.30
2023-01-26T18:37:17.261Z,77.50
2023-01-26T18:42:50.375Z,78.10
2023-01-26T18:45:21.069Z,78.70
2023-01-26T18:47:52.968Z,78.70
2023-01-26T18:50:23.735Z,79.30
2023-01-26T18:52:54.791Z,79.70
2023-01-26T18:55:25.750Z,80.00
2023-01-26T18:57:56.523Z,79.80
2023-01-26T19:00:27.343Z,79.50
2023-01-26T19:02:58.116Z,79.00
2023-01-26T19:05:29.291Z,78.80
2023-01-26T19:08:01.462Z,78.80
2023-01-26T19:10:32.197Z,79.10
2023-01-26T19:13:03.274Z,79.30
2023-01-26T19:15:33.975Z,79.00
2023-01-26T19:18:05.471Z,78.90
2023-01-26T19:20:36.285Z,78.20
2023-01-26T19:23:07.013Z,77.40
2023-01-26T19:25:39.489Z,77.20
2023-01-26T19:28:11.154Z,76.80
2023-01-26T19:30:41.974Z,76.10
2023-01-26T19:33:29.209Z,75.70
2023-01-26T19:36:01.417Z,75.50
2023-01-26T19:38:32.303Z,75.10
2023-01-26T19:41:04.154Z,74.80
2023-01-26T19:43:34.956Z,74.60
2023-01-26T19:46:06.680Z,74.30
2023-01-26T19:48:37.743Z,74.40
2023-01-26T19:51:11.085Z,74.10
2023-01-26T19:53:44.290Z,74.90
2023-01-26T19:56:20.197Z,74.60
2023-01-26T19:58:59.478Z,73.80
2023-01-26T20:01:32.029Z,73.80
2023-01-26T20:04:05.560Z,73.70
2023-01-26T20:06:44.722Z,73.80
2023-01-26T20:09:15.466Z,74.10
2023-01-26T20:11:46.162Z,74.20
2023-01-26T20:14:17.371Z,74.40
2023-01-26T20:16:48.181Z,74.50
2023-01-26T20:19:28.551Z,74.60
2023-01-26T20:22:00.007Z,74.00
2023-01-26T20:24:30.938Z,73.80
2023-01-26T20:27:01.787Z,74.30
2023-01-26T20:29:33.325Z,74.50
2023-01-26T20:32:05.276Z,74.20
2023-01-26T20:34:36.031Z,74.10
2023-01-26T20:37:06.828Z,74.60
2023-01-26T20:39:37.749Z,75.00
2023-01-26T20:42:09.040Z,75.30
2023-01-26T20:44:43.076Z,75.00
2023-01-26T20:47:12.803Z,75.10
2023-01-26T20:49:43.725Z,75.40
2023-01-26T20:52:14.661Z,75.50
2023-01-26T20:54:45.583Z,75.50
2023-01-26T20:57:16.748Z,75.20
2023-01-26T20:59:47.687Z,75.10
2023-01-26T21:02:19.147Z,75.40
2023-01-26T21:04:50.195Z,75.50
2023-01-26T21:07:21.005Z,75.10
2023-01-26T21:09:51.900Z,74.80
2023-01-26T21:12:22.718Z,74.60
2023-01-26T21:14:53.524Z,74.50
2023-01-26T21:17:25.550Z,74.50
2023-01-26T21:19:56.377Z,74.30
2023-01-26T21:22:27.276Z,74.40
2023-01-26T21:24:57.953Z,74.50
2023-01-26T21:27:28.810Z,74.80
2023-01-26T21:29:59.546Z,75.20
2023-01-26T21:32:30.484Z,75.50
2023-01-26T21:35:01.247Z,76.00
2023-01-26T21:37:31.916Z,76.20
2023-01-26T21:40:02.797Z,76.70
2023-01-26T21:42:33.658Z,77.10
2023-01-26T21:45:22.158Z,77.40
2023-01-26T21:47:54.287Z,77.90
2023-01-26T21:50:26.333Z,78.60
2023-01-26T21:53:00.143Z,79.10
2023-01-26T21:55:30.826Z,79.60
2023-01-26T21:58:20.536Z,80.50
2023-01-26T22:00:51.207Z,80.50
2023-01-26T22:03:22.010Z,79.90
2023-01-26T22:05:56.056Z,78.90
2023-01-26T22:08:26.778Z,78.50
2023-01-26T22:11:00.696Z,77.90
2023-01-26T22:13:31.556Z,77.80
2023-01-26T22:16:06.575Z,77.80
2023-01-26T22:18:37.795Z,77.80
2023-01-26T22:21:08.950Z,77.60
2023-01-26T22:23:41.727Z,77.60
2023-01-26T22:26:14.696Z,77.40
2023-01-26T22:28:46.993Z,77.20
2023-01-26T22:31:18.586Z,77.30
2023-01-26T22:33:49.382Z,77.30
2023-01-26T22:36:20.353Z,77.50
2023-01-26T22:38:51.747Z,77.70
2023-01-26T22:41:31.144Z,77.90
2023-01-26T22:44:02.928Z,78.30
2023-01-26T22:46:34.083Z,78.50
2023-01-26T22:49:06.031Z,78.80
2023-01-26T22:51:38.307Z,78.80
2023-01-26T22:54:09.516Z,79.00
2023-01-26T22:56:40.394Z,79.30
2023-01-26T22:59:11.091Z,79.30
2023-01-26T23:01:41.799Z,79.90
2023-01-26T23:04:13.021Z,79.70
2023-01-26T23:06:43.777Z,79.60
2023-01-26T23:09:14.495Z,79.80
2023-01-26T23:11:45.177Z,79.70
2023-01-26T23:14:16.061Z,79.50
2023-01-26T23:16:47.188Z,79.90
2023-01-26T23:19:18.652Z,80.30
2023-01-26T23:21:49.502Z,81.60
2023-01-26T23:24:20.420Z,80.10
2023-01-26T23:26:51.204Z,79.70
2023-01-26T23:29:21.928Z,79.40
2023-01-26T23:31:52.952Z,79.50
2023-01-26T23:34:23.812Z,79.60
2023-01-26T23:36:54.504Z,79.50
2023-01-26T23:39:25.384Z,79.50
2023-01-26T23:41:56.084Z,79.60
2023-01-26T23:44:26.821Z,79.70
2023-01-26T23:46:57.639Z,79.90
2023-01-26T23:49:28.364Z,79.80
2023-01-26T23:52:01.796Z,80.00
2023-01-26T23:54:32.650Z,80.20
2023-01-26T23:57:03.343Z,80.20
2023-01-26T23:59:34.093Z,80.50
